sensor_id;sensor_type;location;lat;lon;timestamp;P1;durP1;ratioP1;P2;durP2;ratioP2
22026;SDS011;11177;50.966;10.070;2023-09-19T00:00:47;2.22;;;0.90;;
22026;SDS011;11177;50.966;10.070;2023-09-19T00:03:15;4.55;;;1.00;;
22026;SDS011;11177;50.966;10.070;2023-09-19T00:05:43;4.22;;;0.75;;
22026;SDS011;11177;50.966;10.070;2023-09-19T00:08:12;0.63;;;0.60;;
22026;SDS011;11177;50.966;10.070;2023-09-19T00:10:43;1.00;;;0.85;;
22026;SDS011;11177;50.966;10.070;2023-09-19T00:13:10;2.65;;;0.80;;
22026;SDS011;11177;50.966;10.070;2023-09-19T00:15:45;1.33;;;0.75;;
22026;SDS011;11177;50.966;10.070;2023-09-19T00:18:17;3.65;;;0.80;;
22026;SDS011;11177;50.966;10.070;2023-09-19T00:20:48;2.78;;;0.80;;
22026;SDS011;11177;50.966;10.070;2023-09-19T00:23:17;4.20;;;0.80;;
22026;SDS011;11177;50.966;10.070;2023-09-19T00:25:46;0.80;;;0.80;;
22026;SDS011;11177;50.966;10.070;2023-09-19T00:28:13;1.52;;;0.82;;
22026;SDS011;11177;50.966;10.070;2023-09-19T00:30:42;0.95;;;0.75;;
22026;SDS011;11177;50.966;10.070;2023-09-19T00:33:11;5.25;;;0.90;;
22026;SDS011;11177;50.966;10.070;2023-09-19T00:35:47;0.80;;;0.65;;
22026;SDS011;11177;50.966;10.070;2023-09-19T00:38:17;2.42;;;0.80;;
22026;SDS011;11177;50.966;10.070;2023-09-19T00:40:48;3.80;;;0.93;;
22026;SDS011;11177;50.966;10.070;2023-09-19T00:43:16;1.42;;;0.90;;
22026;SDS011;11177;50.966;10.070;2023-09-19T00:45:45;3.63;;;0.90;;
22026;SDS011;11177;50.966;10.070;2023-09-19T00:48:15;1.30;;;0.80;;
22026;SDS011;11177;50.966;10.070;2023-09-19T00:50:42;1.67;;;0.98;;
22026;SDS011;11177;50.966;10.070;2023-09-19T00:53:18;2.75;;;1.20;;
22026;SDS011;11177;50.966;10.070;2023-09-19T00:55:46;3.95;;;1.50;;
22026;SDS011;11177;50.966;10.070;2023-09-19T00:58:14;1.40;;;1.00;;
22026;SDS011;11177;50.966;10.070;2023-09-19T01:00:45;2.92;;;1.40;;
22026;SDS011;11177;50.966;10.070;2023-09-19T01:03:14;4.15;;;1.50;;
22026;SDS011;11177;50.966;10.070;2023-09-19T01:05:41;3.22;;;1.25;;
22026;SDS011;11177;50.966;10.070;2023-09-19T01:08:09;3.30;;;1.50;;
22026;SDS011;11177;50.966;10.070;2023-09-19T01:10:40;3.63;;;1.48;;
22026;SDS011;11177;50.966;10.070;2023-09-19T01:13:21;4.25;;;1.20;;
22026;SDS011;11177;50.966;10.070;2023-09-19T01:18:37;3.05;;;1.27;;
22026;SDS011;11177;50.966;10.070;2023-09-19T01:21:26;1.70;;;1.25;;
22026;SDS011;11177;50.966;10.070;2023-09-19T01:30:14;2.10;;;1.20;;
22026;SDS011;11177;50.966;10.070;2023-09-19T01:32:44;2.55;;;1.30;;
22026;SDS011;11177;50.966;10.070;2023-09-19T01:35:13;1.67;;;1.15;;
22026;SDS011;11177;50.966;10.070;2023-09-19T01:37:40;3.47;;;1.40;;
22026;SDS011;11177;50.966;10.070;2023-09-19T01:40:14;3.72;;;1.67;;
22026;SDS011;11177;50.966;10.070;2023-09-19T01:42:53;2.42;;;1.40;;
22026;SDS011;11177;50.966;10.070;2023-09-19T01:46:13;5.50;;;1.83;;
22026;SDS011;11177;50.966;10.070;2023-09-19T01:52:20;3.33;;;1.80;;
22026;SDS011;11177;50.966;10.070;2023-09-19T01:54:46;3.28;;;1.80;;
22026;SDS011;11177;50.966;10.070;2023-09-19T01:57:22;2.75;;;1.60;;
22026;SDS011;11177;50.966;10.070;2023-09-19T02:00:03;4.53;;;1.88;;
22026;SDS011;11177;50.966;10.070;2023-09-19T02:02:36;3.95;;;1.67;;
22026;SDS011;11177;50.966;10.070;2023-09-19T02:05:04;2.58;;;1.33;;
22026;SDS011;11177;50.966;10.070;2023-09-19T02:07:31;2.55;;;1.15;;
22026;SDS011;11177;50.966;10.070;2023-09-19T02:09:59;4.93;;;1.20;;
22026;SDS011;11177;50.966;10.070;2023-09-19T02:12:32;1.85;;;1.20;;
22026;SDS011;11177;50.966;10.070;2023-09-19T02:14:59;3.25;;;1.35;;
22026;SDS011;11177;50.966;10.070;2023-09-19T02:17:26;2.13;;;1.00;;
22026;SDS011;11177;50.966;10.070;2023-09-19T02:19:54;5.53;;;1.20;;
22026;SDS011;11177;50.966;10.070;2023-09-19T02:22:21;3.33;;;0.95;;
22026;SDS011;11177;50.966;10.070;2023-09-19T02:24:51;3.75;;;0.93;;
22026;SDS011;11177;50.966;10.070;2023-09-19T02:27:19;3.10;;;1.10;;
22026;SDS011;11177;50.966;10.070;2023-09-19T02:29:46;3.53;;;1.20;;
22026;SDS011;11177;50.966;10.070;2023-09-19T02:32:13;1.90;;;1.10;;
22026;SDS011;11177;50.966;10.070;2023-09-19T02:34:40;2.47;;;1.17;;
22026;SDS011;11177;50.966;10.070;2023-09-19T02:37:08;1.90;;;0.90;;
22026;SDS011;11177;50.966;10.070;2023-09-19T02:39:35;1.48;;;1.00;;
22026;SDS011;11177;50.966;10.070;2023-09-19T02:42:02;2.28;;;1.10;;
22026;SDS011;11177;50.966;10.070;2023-09-19T02:44:30;1.77;;;1.20;;
22026;SDS011;11177;50.966;10.070;2023-09-19T02:46:57;2.65;;;1.38;;
22026;SDS011;11177;50.966;10.070;2023-09-19T02:49:25;3.47;;;1.52;;
22026;SDS011;11177;50.966;10.070;2023-09-19T02:51:52;4.13;;;1.90;;
22026;SDS011;11177;50.966;10.070;2023-09-19T02:54:19;3.92;;;1.65;;
22026;SDS011;11177;50.966;10.070;2023-09-19T02:56:46;1.85;;;1.35;;
22026;SDS011;11177;50.966;10.070;2023-09-19T02:59:13;3.00;;;1.40;;
22026;SDS011;11177;50.966;10.070;2023-09-19T03:01:43;2.20;;;1.15;;
22026;SDS011;11177;50.966;10.070;2023-09-19T03:04:10;3.88;;;1.20;;
22026;SDS011;11177;50.966;10.070;2023-09-19T03:06:38;2.17;;;1.02;;
22026;SDS011;11177;50.966;10.070;2023-09-19T03:09:05;2.00;;;1.30;;
22026;SDS011;11177;50.966;10.070;2023-09-19T03:11:39;2.97;;;1.20;;
22026;SDS011;11177;50.966;10.070;2023-09-19T03:14:06;1.98;;;1.10;;
22026;SDS011;11177;50.966;10.070;2023-09-19T03:16:33;2.75;;;1.10;;
22026;SDS011;11177;50.966;10.070;2023-09-19T03:19:00;2.72;;;1.20;;
22026;SDS011;11177;50.966;10.070;2023-09-19T03:21:27;1.73;;;1.00;;
22026;SDS011;11177;50.966;10.070;2023-09-19T03:23:56;1.75;;;1.10;;
22026;SDS011;11177;50.966;10.070;2023-09-19T03:26:23;1.73;;;1.20;;
22026;SDS011;11177;50.966;10.070;2023-09-19T03:28:53;3.75;;;1.35;;
22026;SDS011;11177;50.966;10.070;2023-09-19T03:31:20;3.67;;;1.30;;
22026;SDS011;11177;50.966;10.070;2023-09-19T03:33:47;1.85;;;1.00;;
22026;SDS011;11177;50.966;10.070;2023-09-19T03:36:14;1.92;;;1.02;;
22026;SDS011;11177;50.966;10.070;2023-09-19T03:38:42;1.42;;;0.75;;
22026;SDS011;11177;50.966;10.070;2023-09-19T03:41:09;1.70;;;0.93;;
22026;SDS011;11177;50.966;10.070;2023-09-19T03:43:36;2.95;;;1.00;;
22026;SDS011;11177;50.966;10.070;2023-09-19T03:46:03;2.97;;;1.27;;
22026;SDS011;11177;50.966;10.070;2023-09-19T03:48:34;1.95;;;1.00;;
22026;SDS011;11177;50.966;10.070;2023-09-19T03:51:01;3.90;;;1.00;;
22026;SDS011;11177;50.966;10.070;2023-09-19T03:53:28;2.70;;;1.30;;
22026;SDS011;11177;50.966;10.070;2023-09-19T03:55:55;4.43;;;1.20;;
22026;SDS011;11177;50.966;10.070;2023-09-19T03:58:22;4.38;;;1.15;;
22026;SDS011;11177;50.966;10.070;2023-09-19T04:00:49;3.92;;;1.10;;
22026;SDS011;11177;50.966;10.070;2023-09-19T04:03:17;2.05;;;1.05;;
22026;SDS011;11177;50.966;10.070;2023-09-19T04:05:47;4.45;;;1.13;;
22026;SDS011;11177;50.966;10.070;2023-09-19T04:08:14;2.33;;;1.10;;
22026;SDS011;11177;50.966;10.070;2023-09-19T04:10:42;3.95;;;1.00;;
22026;SDS011;11177;50.966;10.070;2023-09-19T04:13:14;2.88;;;0.95;;
22026;SDS011;11177;50.966;10.070;2023-09-19T04:15:42;3.95;;;1.23;;
22026;SDS011;11177;50.966;10.070;2023-09-19T04:18:09;2.22;;;1.15;;
22026;SDS011;11177;50.966;10.070;2023-09-19T04:20:36;1.48;;;0.93;;
22026;SDS011;11177;50.966;10.070;2023-09-19T04:23:03;1.98;;;1.10;;
22026;SDS011;11177;50.966;10.070;2023-09-19T04:25:32;3.25;;;1.10;;
22026;SDS011;11177;50.966;10.070;2023-09-19T04:27:59;2.13;;;1.05;;
22026;SDS011;11177;50.966;10.070;2023-09-19T04:30:26;3.33;;;0.90;;
22026;SDS011;11177;50.966;10.070;2023-09-19T04:32:53;2.55;;;1.30;;
22026;SDS011;11177;50.966;10.070;2023-09-19T04:35:20;3.25;;;1.10;;
22026;SDS011;11177;50.966;10.070;2023-09-19T04:37:47;4.95;;;1.10;;
22026;SDS011;11177;50.966;10.070;2023-09-19T04:40:14;2.30;;;1.25;;
22026;SDS011;11177;50.966;10.070;2023-09-19T04:42:44;3.13;;;1.33;;
22026;SDS011;11177;50.966;10.070;2023-09-19T04:45:12;5.55;;;1.05;;
22026;SDS011;11177;50.966;10.070;2023-09-19T04:47:39;3.17;;;1.17;;
22026;SDS011;11177;50.966;10.070;2023-09-19T04:50:08;2.45;;;1.20;;
22026;SDS011;11177;50.966;10.070;2023-09-19T04:52:42;2.30;;;1.10;;
22026;SDS011;11177;50.966;10.070;2023-09-19T04:55:12;2.30;;;1.40;;
22026;SDS011;11177;50.966;10.070;2023-09-19T04:57:44;3.78;;;1.27;;
22026;SDS011;11177;50.966;10.070;2023-09-19T05:00:18;5.10;;;1.13;;
22026;SDS011;11177;50.966;10.070;2023-09-19T05:02:48;5.95;;;1.50;;
22026;SDS011;11177;50.966;10.070;2023-09-19T05:05:16;6.45;;;1.60;;
22026;SDS011;11177;50.966;10.070;2023-09-19T05:07:44;2.80;;;1.30;;
22026;SDS011;11177;50.966;10.070;2023-09-19T05:10:12;5.13;;;1.33;;
22026;SDS011;11177;50.966;10.070;2023-09-19T05:12:40;4.07;;;1.90;;
22026;SDS011;11177;50.966;10.070;2023-09-19T05:15:07;3.47;;;1.63;;
22026;SDS011;11177;50.966;10.070;2023-09-19T05:17:35;3.22;;;1.13;;
22026;SDS011;11177;50.966;10.070;2023-09-19T05:20:02;2.60;;;1.27;;
22026;SDS011;11177;50.966;10.070;2023-09-19T05:22:33;4.35;;;1.55;;
22026;SDS011;11177;50.966;10.070;2023-09-19T05:25:00;5.80;;;1.48;;
22026;SDS011;11177;50.966;10.070;2023-09-19T05:27:31;5.22;;;1.30;;
22026;SDS011;11177;50.966;10.070;2023-09-19T05:29:58;3.15;;;1.48;;
22026;SDS011;11177;50.966;10.070;2023-09-19T05:32:24;2.83;;;1.27;;
22026;SDS011;11177;50.966;10.070;2023-09-19T05:34:52;3.05;;;1.27;;
22026;SDS011;11177;50.966;10.070;2023-09-19T05:37:23;2.35;;;1.30;;
22026;SDS011;11177;50.966;10.070;2023-09-19T05:39:53;3.90;;;1.52;;
22026;SDS011;11177;50.966;10.070;2023-09-19T05:42:24;5.45;;;1.35;;
22026;SDS011;11177;50.966;10.070;2023-09-19T05:44:51;3.47;;;1.50;;
22026;SDS011;11177;50.966;10.070;2023-09-19T05:47:18;2.55;;;1.40;;
22026;SDS011;11177;50.966;10.070;2023-09-19T05:49:45;4.00;;;1.60;;
22026;SDS011;11177;50.966;10.070;2023-09-19T05:52:15;6.05;;;1.60;;
22026;SDS011;11177;50.966;10.070;2023-09-19T05:54:43;3.95;;;1.55;;
22026;SDS011;11177;50.966;10.070;2023-09-19T05:57:10;4.90;;;1.50;;
22026;SDS011;11177;50.966;10.070;2023-09-19T05:59:38;3.08;;;1.20;;
22026;SDS011;11177;50.966;10.070;2023-09-19T06:02:06;6.07;;;1.50;;
22026;SDS011;11177;50.966;10.070;2023-09-19T06:04:33;4.20;;;1.13;;
22026;SDS011;11177;50.966;10.070;2023-09-19T06:07:01;5.90;;;1.60;;
22026;SDS011;11177;50.966;10.070;2023-09-19T06:09:30;2.88;;;1.25;;
22026;SDS011;11177;50.966;10.070;2023-09-19T06:11:58;3.58;;;1.05;;
22026;SDS011;11177;50.966;10.070;2023-09-19T06:14:30;3.88;;;1.40;;
22026;SDS011;11177;50.966;10.070;2023-09-19T06:16:57;3.33;;;1.38;;
22026;SDS011;11177;50.966;10.070;2023-09-19T06:19:24;5.55;;;1.10;;
22026;SDS011;11177;50.966;10.070;2023-09-19T06:21:52;9.18;;;1.42;;
22026;SDS011;11177;50.966;10.070;2023-09-19T06:24:20;4.38;;;1.20;;
22026;SDS011;11177;50.966;10.070;2023-09-19T06:26:47;3.63;;;1.10;;
22026;SDS011;11177;50.966;10.070;2023-09-19T06:29:16;4.38;;;1.23;;
22026;SDS011;11177;50.966;10.070;2023-09-19T06:31:43;6.95;;;1.42;;
22026;SDS011;11177;50.966;10.070;2023-09-19T06:34:11;5.88;;;1.27;;
22026;SDS011;11177;50.966;10.070;2023-09-19T06:36:38;8.43;;;1.20;;
22026;SDS011;11177;50.966;10.070;2023-09-19T06:39:05;6.75;;;1.60;;
22026;SDS011;11177;50.966;10.070;2023-09-19T06:41:33;6.40;;;1.38;;
22026;SDS011;11177;50.966;10.070;2023-09-19T06:44:00;5.60;;;1.35;;
22026;SDS011;11177;50.966;10.070;2023-09-19T06:46:27;7.88;;;1.50;;
22026;SDS011;11177;50.966;10.070;2023-09-19T06:48:59;3.95;;;1.30;;
22026;SDS011;11177;50.966;10.070;2023-09-19T06:51:26;5.25;;;1.25;;
22026;SDS011;11177;50.966;10.070;2023-09-19T06:53:53;5.85;;;1.40;;
22026;SDS011;11177;50.966;10.070;2023-09-19T06:56:21;3.47;;;1.38;;
22026;SDS011;11177;50.966;10.070;2023-09-19T06:58:51;6.63;;;1.90;;
22026;SDS011;11177;50.966;10.070;2023-09-19T07:01:18;5.60;;;1.60;;
22026;SDS011;11177;50.966;10.070;2023-09-19T07:03:45;8.48;;;2.15;;
22026;SDS011;11177;50.966;10.070;2023-09-19T07:06:12;7.63;;;1.63;;
22026;SDS011;11177;50.966;10.070;2023-09-19T07:08:39;6.20;;;1.42;;
22026;SDS011;11177;50.966;10.070;2023-09-19T07:11:06;9.10;;;1.40;;
22026;SDS011;11177;50.966;10.070;2023-09-19T07:13:33;7.95;;;1.67;;
22026;SDS011;11177;50.966;10.070;2023-09-19T07:16:02;7.20;;;1.42;;
22026;SDS011;11177;50.966;10.070;2023-09-19T07:18:29;5.88;;;1.27;;
22026;SDS011;11177;50.966;10.070;2023-09-19T07:20:57;5.53;;;1.38;;
22026;SDS011;11177;50.966;10.070;2023-09-19T07:23:27;7.15;;;1.60;;
22026;SDS011;11177;50.966;10.070;2023-09-19T07:25:57;7.75;;;1.63;;
22026;SDS011;11177;50.966;10.070;2023-09-19T07:28:25;5.80;;;1.58;;
22026;SDS011;11177;50.966;10.070;2023-09-19T07:30:52;5.97;;;1.30;;
22026;SDS011;11177;50.966;10.070;2023-09-19T07:33:19;7.25;;;1.58;;
22026;SDS011;11177;50.966;10.070;2023-09-19T07:35:46;6.78;;;1.50;;
22026;SDS011;11177;50.966;10.070;2023-09-19T07:38:14;7.90;;;1.65;;
22026;SDS011;11177;50.966;10.070;2023-09-19T07:40:41;8.95;;;1.75;;
22026;SDS011;11177;50.966;10.070;2023-09-19T07:43:08;5.93;;;1.60;;
22026;SDS011;11177;50.966;10.070;2023-09-19T07:45:35;8.43;;;1.67;;
22026;SDS011;11177;50.966;10.070;2023-09-19T07:48:03;6.07;;;1.55;;
22026;SDS011;11177;50.966;10.070;2023-09-19T07:50:40;5.93;;;1.77;;
22026;SDS011;11177;50.966;10.070;2023-09-19T07:53:10;5.18;;;1.30;;
22026;SDS011;11177;50.966;10.070;2023-09-19T07:55:40;6.22;;;1.40;;
22026;SDS011;11177;50.966;10.070;2023-09-19T07:58:07;5.88;;;1.40;;
22026;SDS011;11177;50.966;10.070;2023-09-19T08:00:35;4.93;;;1.38;;
22026;SDS011;11177;50.966;10.070;2023-09-19T08:03:01;5.03;;;1.40;;
22026;SDS011;11177;50.966;10.070;2023-09-19T08:05:42;4.30;;;1.60;;
22026;SDS011;11177;50.966;10.070;2023-09-19T08:08:10;4.40;;;1.52;;
22026;SDS011;11177;50.966;10.070;2023-09-19T08:10:40;7.53;;;1.30;;
22026;SDS011;11177;50.966;10.070;2023-09-19T08:13:09;5.50;;;1.60;;
22026;SDS011;11177;50.966;10.070;2023-09-19T08:15:43;6.15;;;1.40;;
22026;SDS011;11177;50.966;10.070;2023-09-19T08:18:11;4.35;;;1.30;;
22026;SDS011;11177;50.966;10.070;2023-09-19T08:20:38;6.90;;;1.58;;
22026;SDS011;11177;50.966;10.070;2023-09-19T08:23:08;6.00;;;1.48;;
22026;SDS011;11177;50.966;10.070;2023-09-19T08:25:35;5.85;;;1.45;;
22026;SDS011;11177;50.966;10.070;2023-09-19T08:28:05;3.83;;;1.33;;
22026;SDS011;11177;50.966;10.070;2023-09-19T08:30:35;6.72;;;1.40;;
22026;SDS011;11177;50.966;10.070;2023-09-19T08:33:07;5.20;;;1.48;;
22026;SDS011;11177;50.966;10.070;2023-09-19T08:35:34;5.60;;;1.35;;
22026;SDS011;11177;50.966;10.070;2023-09-19T08:38:01;3.65;;;1.10;;
22026;SDS011;11177;50.966;10.070;2023-09-19T08:40:31;4.03;;;1.30;;
22026;SDS011;11177;50.966;10.070;2023-09-19T08:43:00;5.68;;;1.50;;
22026;SDS011;11177;50.966;10.070;2023-09-19T08:45:27;6.03;;;1.42;;
22026;SDS011;11177;50.966;10.070;2023-09-19T08:48:09;5.10;;;1.40;;
22026;SDS011;11177;50.966;10.070;2023-09-19T08:50:54;2.50;;;1.20;;
22026;SDS011;11177;50.966;10.070;2023-09-19T08:56:26;4.75;;;1.20;;
22026;SDS011;11177;50.966;10.070;2023-09-19T08:59:00;6.93;;;1.40;;
22026;SDS011;11177;50.966;10.070;2023-09-19T09:01:30;5.43;;;1.17;;
22026;SDS011;11177;50.966;10.070;2023-09-19T09:03:59;3.67;;;1.30;;
22026;SDS011;11177;50.966;10.070;2023-09-19T09:06:28;6.13;;;1.63;;
22026;SDS011;11177;50.966;10.070;2023-09-19T09:08:56;3.40;;;1.17;;
22026;SDS011;11177;50.966;10.070;2023-09-19T09:11:23;3.45;;;1.02;;
22026;SDS011;11177;50.966;10.070;2023-09-19T09:13:51;3.47;;;1.40;;
22026;SDS011;11177;50.966;10.070;2023-09-19T09:16:18;3.05;;;1.20;;
22026;SDS011;11177;50.966;10.070;2023-09-19T09:18:46;7.60;;;1.17;;
22026;SDS011;11177;50.966;10.070;2023-09-19T09:21:21;5.85;;;1.13;;
22026;SDS011;11177;50.966;10.070;2023-09-19T09:23:49;5.53;;;1.30;;
22026;SDS011;11177;50.966;10.070;2023-09-19T09:26:41;3.67;;;1.25;;
22026;SDS011;11177;50.966;10.070;2023-09-19T09:29:14;4.75;;;1.17;;
22026;SDS011;11177;50.966;10.070;2023-09-19T09:31:46;3.40;;;1.10;;
22026;SDS011;11177;50.966;10.070;2023-09-19T09:34:15;4.03;;;1.40;;
22026;SDS011;11177;50.966;10.070;2023-09-19T09:36:42;4.80;;;1.30;;
22026;SDS011;11177;50.966;10.070;2023-09-19T09:39:14;2.88;;;1.23;;
22026;SDS011;11177;50.966;10.070;2023-09-19T09:41:45;4.90;;;1.25;;
22026;SDS011;11177;50.966;10.070;2023-09-19T09:44:16;3.70;;;1.17;;
22026;SDS011;11177;50.966;10.070;2023-09-19T09:46:45;3.90;;;1.20;;
22026;SDS011;11177;50.966;10.070;2023-09-19T09:49:22;1.95;;;1.10;;
22026;SDS011;11177;50.966;10.070;2023-09-19T09:54:37;2.53;;;1.20;;
22026;SDS011;11177;50.966;10.070;2023-09-19T09:57:09;2.97;;;1.30;;
22026;SDS011;11177;50.966;10.070;2023-09-19T09:59:53;2.67;;;1.25;;
22026;SDS011;11177;50.966;10.070;2023-09-19T10:02:44;3.05;;;1.25;;
22026;SDS011;11177;50.966;10.070;2023-09-19T10:05:17;5.72;;;1.33;;
22026;SDS011;11177;50.966;10.070;2023-09-19T10:07:55;5.20;;;1.42;;
22026;SDS011;11177;50.966;10.070;2023-09-19T10:10:34;3.78;;;1.40;;
22026;SDS011;11177;50.966;10.070;2023-09-19T10:13:21;6.53;;;1.52;;
22026;SDS011;11177;50.966;10.070;2023-09-19T10:15:50;4.38;;;1.33;;
22026;SDS011;11177;50.966;10.070;2023-09-19T10:18:24;4.07;;;1.17;;
22026;SDS011;11177;50.966;10.070;2023-09-19T10:20:52;4.43;;;1.38;;
22026;SDS011;11177;50.966;10.070;2023-09-19T10:23:19;5.85;;;1.40;;
22026;SDS011;11177;50.966;10.070;2023-09-19T10:25:50;2.63;;;1.30;;
22026;SDS011;11177;50.966;10.070;2023-09-19T10:28:19;3.20;;;1.20;;
22026;SDS011;11177;50.966;10.070;2023-09-19T10:30:50;6.20;;;1.40;;
22026;SDS011;11177;50.966;10.070;2023-09-19T10:33:18;4.30;;;1.45;;
22026;SDS011;11177;50.966;10.070;2023-09-19T10:35:53;5.13;;;1.52;;
22026;SDS011;11177;50.966;10.070;2023-09-19T10:38:24;3.38;;;1.45;;
22026;SDS011;11177;50.966;10.070;2023-09-19T10:40:55;4.05;;;1.40;;
22026;SDS011;11177;50.966;10.070;2023-09-19T10:43:31;5.15;;;1.70;;
22026;SDS011;11177;50.966;10.070;2023-09-19T10:46:03;3.05;;;1.40;;
22026;SDS011;11177;50.966;10.070;2023-09-19T10:48:34;3.20;;;1.23;;
22026;SDS011;11177;50.966;10.070;2023-09-19T10:51:04;3.42;;;1.60;;
22026;SDS011;11177;50.966;10.070;2023-09-19T10:56:35;7.07;;;1.80;;
22026;SDS011;11177;50.966;10.070;2023-09-19T10:59:11;4.75;;;1.58;;
22026;SDS011;11177;50.966;10.070;2023-09-19T11:01:43;5.75;;;1.48;;
22026;SDS011;11177;50.966;10.070;2023-09-19T11:04:28;5.97;;;1.85;;
22026;SDS011;11177;50.966;10.070;2023-09-19T11:07:06;4.18;;;1.55;;
22026;SDS011;11177;50.966;10.070;2023-09-19T11:09:54;5.95;;;1.52;;
22026;SDS011;11177;50.966;10.070;2023-09-19T11:21:38;3.50;;;1.67;;
22026;SDS011;11177;50.966;10.070;2023-09-19T11:27:11;5.43;;;1.88;;
22026;SDS011;11177;50.966;10.070;2023-09-19T11:29:44;3.70;;;1.73;;
22026;SDS011;11177;50.966;10.070;2023-09-19T11:32:11;5.05;;;1.75;;
22026;SDS011;11177;50.966;10.070;2023-09-19T11:34:40;5.38;;;1.48;;
22026;SDS011;11177;50.966;10.070;2023-09-19T11:40:09;7.10;;;1.80;;
22026;SDS011;11177;50.966;10.070;2023-09-19T11:42:43;6.03;;;1.63;;
22026;SDS011;11177;50.966;10.070;2023-09-19T11:48:13;5.25;;;1.67;;
22026;SDS011;11177;50.966;10.070;2023-09-19T11:50:42;3.67;;;1.65;;
22026;SDS011;11177;50.966;10.070;2023-09-19T11:53:13;4.97;;;1.70;;
22026;SDS011;11177;50.966;10.070;2023-09-19T11:55:43;5.28;;;1.85;;
22026;SDS011;11177;50.966;10.070;2023-09-19T11:58:12;6.63;;;1.67;;
22026;SDS011;11177;50.966;10.070;2023-09-19T12:00:43;3.95;;;1.55;;
22026;SDS011;11177;50.966;10.070;2023-09-19T12:03:12;5.70;;;1.83;;
22026;SDS011;11177;50.966;10.070;2023-09-19T12:05:41;8.45;;;1.80;;
22026;SDS011;11177;50.966;10.070;2023-09-19T12:08:08;5.05;;;1.67;;
22026;SDS011;11177;50.966;10.070;2023-09-19T12:10:48;3.80;;;1.63;;
22026;SDS011;11177;50.966;10.070;2023-09-19T12:13:16;4.35;;;1.77;;
22026;SDS011;11177;50.966;10.070;2023-09-19T12:15:44;6.68;;;1.60;;
22026;SDS011;11177;50.966;10.070;2023-09-19T12:18:27;4.35;;;1.80;;
22026;SDS011;11177;50.966;10.070;2023-09-19T12:20:55;6.20;;;2.03;;
22026;SDS011;11177;50.966;10.070;2023-09-19T12:23:22;5.35;;;1.60;;
22026;SDS011;11177;50.966;10.070;2023-09-19T12:25:50;5.28;;;1.67;;
22026;SDS011;11177;50.966;10.070;2023-09-19T12:28:20;6.53;;;1.63;;
22026;SDS011;11177;50.966;10.070;2023-09-19T12:30:50;4.53;;;1.50;;
22026;SDS011;11177;50.966;10.070;2023-09-19T12:33:23;5.22;;;1.80;;
22026;SDS011;11177;50.966;10.070;2023-09-19T12:35:53;5.70;;;1.38;;
22026;SDS011;11177;50.966;10.070;2023-09-19T12:38:26;3.58;;;1.50;;
22026;SDS011;11177;50.966;10.070;2023-09-19T12:40:58;4.82;;;1.48;;
22026;SDS011;11177;50.966;10.070;2023-09-19T12:43:30;4.90;;;1.60;;
22026;SDS011;11177;50.966;10.070;2023-09-19T12:46:00;5.43;;;1.95;;
22026;SDS011;11177;50.966;10.070;2023-09-19T12:48:27;5.40;;;2.38;;
22026;SDS011;11177;50.966;10.070;2023-09-19T12:51:02;6.13;;;2.50;;
22026;SDS011;11177;50.966;10.070;2023-09-19T12:53:34;8.32;;;2.10;;
22026;SDS011;11177;50.966;10.070;2023-09-19T12:56:16;8.45;;;2.08;;
22026;SDS011;11177;50.966;10.070;2023-09-19T12:58:48;6.85;;;2.00;;
22026;SDS011;11177;50.966;10.070;2023-09-19T13:01:23;6.80;;;1.83;;
22026;SDS011;11177;50.966;10.070;2023-09-19T13:06:52;7.38;;;1.98;;
22026;SDS011;11177;50.966;10.070;2023-09-19T13:09:22;6.20;;;2.00;;
22026;SDS011;11177;50.966;10.070;2023-09-19T13:11:55;4.25;;;1.90;;
22026;SDS011;11177;50.966;10.070;2023-09-19T13:14:25;5.57;;;2.10;;
22026;SDS011;11177;50.966;10.070;2023-09-19T13:17:07;7.50;;;2.10;;
22026;SDS011;11177;50.966;10.070;2023-09-19T13:19:46;3.60;;;1.50;;
22026;SDS011;11177;50.966;10.070;2023-09-19T13:25:13;4.13;;;1.67;;
22026;SDS011;11177;50.966;10.070;2023-09-19T13:30:15;6.60;;;2.13;;
22026;SDS011;11177;50.966;10.070;2023-09-19T13:32:42;5.28;;;2.38;;
22026;SDS011;11177;50.966;10.070;2023-09-19T13:35:10;5.22;;;2.08;;
22026;SDS011;11177;50.966;10.070;2023-09-19T13:37:39;4.28;;;1.75;;
22026;SDS011;11177;50.966;10.070;2023-09-19T13:40:13;3.55;;;2.03;;
22026;SDS011;11177;50.966;10.070;2023-09-19T13:42:40;5.25;;;1.90;;
22026;SDS011;11177;50.966;10.070;2023-09-19T13:45:08;5.10;;;1.90;;
22026;SDS011;11177;50.966;10.070;2023-09-19T13:47:39;3.88;;;2.00;;
22026;SDS011;11177;50.966;10.070;2023-09-19T13:50:07;5.57;;;2.17;;
22026;SDS011;11177;50.966;10.070;2023-09-19T13:52:35;6.40;;;1.98;;
22026;SDS011;11177;50.966;10.070;2023-09-19T13:55:02;7.32;;;2.08;;
22026;SDS011;11177;50.966;10.070;2023-09-19T13:57:30;4.35;;;1.75;;
22026;SDS011;11177;50.966;10.070;2023-09-19T13:59:57;6.00;;;1.90;;
22026;SDS011;11177;50.966;10.070;2023-09-19T14:02:24;6.85;;;1.95;;
22026;SDS011;11177;50.966;10.070;2023-09-19T14:04:51;4.68;;;1.70;;
22026;SDS011;11177;50.966;10.070;2023-09-19T14:07:19;5.03;;;2.17;;
22026;SDS011;11177;50.966;10.070;2023-09-19T14:09:47;3.47;;;1.88;;
22026;SDS011;11177;50.966;10.070;2023-09-19T14:12:14;6.22;;;2.20;;
22026;SDS011;11177;50.966;10.070;2023-09-19T14:14:42;6.40;;;2.10;;
22026;SDS011;11177;50.966;10.070;2023-09-19T14:17:09;5.40;;;2.08;;
22026;SDS011;11177;50.966;10.070;2023-09-19T14:19:37;8.07;;;2.10;;
22026;SDS011;11177;50.966;10.070;2023-09-19T14:22:04;6.20;;;1.95;;
22026;SDS011;11177;50.966;10.070;2023-09-19T14:24:34;7.28;;;2.17;;
22026;SDS011;11177;50.966;10.070;2023-09-19T14:27:02;6.40;;;2.17;;
22026;SDS011;11177;50.966;10.070;2023-09-19T14:29:30;5.07;;;2.20;;
22026;SDS011;11177;50.966;10.070;2023-09-19T14:31:58;9.10;;;2.22;;
22026;SDS011;11177;50.966;10.070;2023-09-19T14:34:26;7.15;;;2.00;;
22026;SDS011;11177;50.966;10.070;2023-09-19T14:36:53;6.25;;;2.17;;
22026;SDS011;11177;50.966;10.070;2023-09-19T14:39:21;6.53;;;2.10;;
22026;SDS011;11177;50.966;10.070;2023-09-19T14:41:48;7.45;;;2.33;;
22026;SDS011;11177;50.966;10.070;2023-09-19T14:44:15;8.52;;;2.35;;
22026;SDS011;11177;50.966;10.070;2023-09-19T14:46:43;5.43;;;1.98;;
22026;SDS011;11177;50.966;10.070;2023-09-19T14:49:12;5.32;;;1.63;;
22026;SDS011;11177;50.966;10.070;2023-09-19T14:51:43;8.73;;;2.20;;
22026;SDS011;11177;50.966;10.070;2023-09-19T14:54:14;6.90;;;2.20;;
22026;SDS011;11177;50.966;10.070;2023-09-19T14:56:44;6.18;;;2.20;;
22026;SDS011;11177;50.966;10.070;2023-09-19T14:59:11;3.78;;;1.67;;
22026;SDS011;11177;50.966;10.070;2023-09-19T15:01:39;4.78;;;1.70;;
22026;SDS011;11177;50.966;10.070;2023-09-19T15:04:07;6.47;;;2.10;;
22026;SDS011;11177;50.966;10.070;2023-09-19T15:06:35;6.20;;;2.40;;
22026;SDS011;11177;50.966;10.070;2023-09-19T15:09:02;10.00;;;2.70;;
22026;SDS011;11177;50.966;10.070;2023-09-19T15:11:31;7.10;;;2.38;;
22026;SDS011;11177;50.966;10.070;2023-09-19T15:13:58;4.85;;;2.00;;
22026;SDS011;11177;50.966;10.070;2023-09-19T15:16:26;6.25;;;2.30;;
22026;SDS011;11177;50.966;10.070;2023-09-19T15:18:54;5.65;;;2.50;;
22026;SDS011;11177;50.966;10.070;2023-09-19T15:21:21;6.65;;;2.40;;
22026;SDS011;11177;50.966;10.070;2023-09-19T15:23:50;7.88;;;2.58;;
22026;SDS011;11177;50.966;10.070;2023-09-19T15:26:17;8.60;;;2.40;;
22026;SDS011;11177;50.966;10.070;2023-09-19T15:28:47;7.70;;;2.25;;
22026;SDS011;11177;50.966;10.070;2023-09-19T15:31:15;6.72;;;2.90;;
22026;SDS011;11177;50.966;10.070;2023-09-19T15:33:42;6.75;;;2.28;;
22026;SDS011;11177;50.966;10.070;2023-09-19T15:36:09;5.20;;;1.90;;